Terminal Aerodrome Forecast
Issued by NWS Des Moines, IA

Home | Current Version | Previous Version | Text Only | Print | Product List | Glossary On
Versions: 1 2 3 4 5 6 7 8 9 10 11 12 13 14 15
000
FTUS43 KDMX 210520
TAFALO
TAF
KALO 210520Z 2106/2206 19006KT 6SM SHRA VCTS SCT035CB OVC070
      TEMPO 2108/2110 4SM TSRA SCT020CB BKN035
     FM211400 24010KT P6SM SCT030 BKN050
     FM211800 32014G21KT P6SM FEW050 SCT120
     FM220100 33014KT P6SM SCT100
      AMD NOT SKED=

USA.gov is the U.S. government's official web portal to all federal, state and local government web resources and services.